Ana Sayfa
METAR-TAF:

METAR-TAF

Havaalanları :

Harare Uluslararası Havalimanı

Harare, Zimbabve

Enlem: 17-55S, Boylam: 031-08E, yükseklik: 1479 m

Güncel hava durumu gözlemi

Rapor saat 18:00 UTC de 6 saat ve 13 dakika önce yapıldı.
Rüzgar doğu/kuzeydoğudan 8 kt
Sıcaklık 17°C
Nem 39%
Basınç 1025 hPa
Görüş mesafesi 10 km veya daha fazla
1500 m altında bulut yok ve kümülonimbus yok

METAR: FVHA 201800Z 07008KT CAVOK 17/03 Q1025 NOSIG

Saat: 02:13 (00:13 UTC)

Tahmin

Rapor saat 16:00 UTC de 8 saat ve 13 dakika önce yapıldı.
Ayın 20'si saat 18 UTC'den ayın 21'si saat 24 UTC'ye kadar geçerli Tahmin
Rüzgar doğu/kuzeydoğudan 8 kt
Görüş mesafesi 10 km veya daha fazla
1500 m altında bulut yok ve kümülonimbus yok

TAF: FVHA 201600Z 2018/2124 06008KT CAVOK

4.000'den fazla havaalanı için hava durumu gözlemleri ve tahminleri (METAR ve TAF raporları).

Kullanılabilir istasyonlar harita üzerinde sarı ve kırmızı noktalarla gösterilir.

İstasyonun adını görmek için fareyi noktanın üzerinde gezdirin.

Sonrasında hava gözlem ve tahminlerini görmek için tıklayın.

Haritayı değiştirmek için: yaklaştırmak için siyah artı işaretli yeşil düğmeye ve uzaklaştırmak için de eksi işaretli düğmeye hızla tıklayın; bitişik haritalar için yeşil okları kullanın.


METAR-TAF: